Rolla, North Dakota
Current Conditions -  °F | °C
As of 8:35 AM on Wednesday 22 Oct 2014 (Local Time) from K06D Reporting Station
Scattered Clouds Scattered Clouds  
Wind Chill: 50°   Ceiling: Unl
Heat Index: 50°   Visibility: 10mi
Dew Point: 45°   Wind: 13mph
Humidity: 82%   Direction: 200°SSW
Pressure: 29.68"   Gusts: NA
Location:  48.86°N, 99.62°W
Report Text: K06D 221335Z AUTO 20011KT 10SM SCT110 10/07 A2968 RMK AO2
Loading
Personal Weather Stations






























Interactive Weather Map New forecast layout! Learn more

10-Day Weather Forecast

Advertisements
Track Severe Weather on mobile